Time;durP1;ratioP1;P1;durP2;ratioP2;P2;SDS_P1;SDS_P2;PMS_P1;PMS_P2;Temp;Humidity;BMP_temperature;BMP_pressure;BME280_temperature;BME280_humidity;BME280_pressure;Samples;Min_cycle;Max_cycle;Signal;HPM_P1;HPM_P2
2023/03/28 00:01:06;;;;;;;;;;;13.00;95.40;;;;;;5111335;28;19931;-88
2023/03/28 00:03:35;;;;;;;;;;;13.00;95.40;;;;;;5111778;28;20023;-88
2023/03/28 00:06:01;;;;;;;;;;;13.00;95.30;;;;;;5112760;28;19908;-88
2023/03/28 00:08:29;;;;;;;;;;;13.00;95.30;;;;;;5112215;28;19995;-88
2023/03/28 00:11:06;;;;;;;;;;;13.00;95.40;;;;;;5112607;28;19936;-88
2023/03/28 00:13:32;;;;;;;;;;;13.00;95.40;;;;;;5113984;28;19908;-88
2023/03/28 00:16:02;;;;;;;;;;;12.90;95.30;;;;;;5112484;28;19908;-88
2023/03/28 00:18:28;;;;;;;;;;;13.00;95.30;;;;;;5112796;28;20269;-88
2023/03/28 00:20:57;;;;;;;;;;;12.90;95.30;;;;;;5112682;28;20263;-86
2023/03/28 00:23:23;;;;;;;;;;;12.90;95.30;;;;;;5113108;28;20275;-88
2023/03/28 00:25:49;;;;;;;;;;;12.90;95.20;;;;;;5112835;28;20042;-88
2023/03/28 00:28:14;;;;;;;;;;;12.90;95.20;;;;;;5113249;28;19955;-88
2023/03/28 00:30:40;;;;;;;;;;;12.90;95.20;;;;;;5113576;28;20014;-88
2023/03/28 00:33:06;;;;;;;;;;;12.90;95.20;;;;;;5112644;28;19912;-88
2023/03/28 00:35:32;;;;;;;;;;;12.90;95.30;;;;;;5112210;28;19916;-88
2023/03/28 00:37:58;;;;;;;;;;;12.90;95.20;;;;;;5110464;28;19908;-88
2023/03/28 00:40:26;;;;;;;;;;;12.90;95.20;;;;;;5110188;28;20007;-88
2023/03/28 00:42:52;;;;;;;;;;;12.90;95.20;;;;;;5110656;28;19919;-88
2023/03/28 00:45:20;;;;;;;;;;;12.90;95.20;;;;;;5094594;28;19951;-88
2023/03/28 00:47:45;;;;;;;;;;;12.80;95.20;;;;;;5111242;28;20274;-88
2023/03/28 00:50:18;;;;;;;;;;;12.90;95.20;;;;;;5109514;28;19909;-88
2023/03/28 00:52:51;;;;;;;;;;;12.80;95.20;;;;;;5112000;28;19934;-88
2023/03/28 00:55:19;;;;;;;;;;;12.80;95.40;;;;;;5110999;28;19908;-88
2023/03/28 00:57:45;;;;;;;;;;;12.80;95.20;;;;;;5112836;28;19912;-88
2023/03/28 01:00:11;;;;;;;;;;;12.80;95.10;;;;;;5111937;28;19912;-88
2023/03/28 01:02:40;;;;;;;;;;;12.80;95.10;;;;;;5096539;28;19912;-87
2023/03/28 01:05:07;;;;;;;;;;;12.80;95.10;;;;;;5112765;28;19908;-88
2023/03/28 01:07:38;;;;;;;;;;;12.80;95.10;;;;;;5112953;28;19919;-88
2023/03/28 01:10:04;;;;;;;;;;;12.80;95.10;;;;;;5112822;28;19908;-88
2023/03/28 01:12:31;;;;;;;;;;;12.80;95.10;;;;;;5111093;28;19908;-87
2023/03/28 01:14:57;;;;;;;;;;;12.80;95.10;;;;;;5111783;28;19915;-87
2023/03/28 01:17:26;;;;;;;;;;;12.80;95.10;;;;;;5112108;28;19916;-87
2023/03/28 01:20:04;;;;;;;;;;;12.80;95.10;;;;;;5111427;28;19954;-88
2023/03/28 01:22:42;;;;;;;;;;;12.80;95.00;;;;;;5110718;28;19922;-88
2023/03/28 01:25:27;;;;;;;;;;;12.80;95.00;;;;;;5109466;28;20182;-88
2023/03/28 01:28:02;;;;;;;;;;;12.80;95.00;;;;;;5111785;28;20190;-87
2023/03/28 01:30:43;;;;;;;;;;;12.70;95.20;;;;;;5111466;28;19908;-88
2023/03/28 01:33:12;;;;;;;;;;;12.70;95.00;;;;;;5111157;28;20265;-88
2023/03/28 01:35:47;;;;;;;;;;;12.70;95.00;;;;;;5110284;28;19919;-88
2023/03/28 01:38:30;;;;;;;;;;;12.70;94.90;;;;;;5111475;28;20281;-88
2023/03/28 01:41:11;;;;;;;;;;;12.70;94.90;;;;;;5111278;28;19916;-88
2023/03/28 01:43:36;;;;;;;;;;;12.70;94.90;;;;;;5108978;28;20006;-88
2023/03/28 01:55:34;;;;;;;;;;;12.70;94.90;;;;;;5093880;28;19919;-87
2023/03/28 01:58:26;;;;;;;;;;;12.60;94.80;;;;;;5111909;28;19950;-88
2023/03/28 02:00:55;;;;;;;;;;;12.60;94.80;;;;;;5054366;28;19936;-88
2023/03/28 02:03:23;;;;;;;;;;;12.60;94.80;;;;;;5111026;28;20001;-87
2023/03/28 02:05:50;;;;;;;;;;;12.70;94.80;;;;;;5109777;28;20166;-88
2023/03/28 02:08:17;;;;;;;;;;;12.70;94.80;;;;;;5109995;28;19916;-88
2023/03/28 02:10:44;;;;;;;;;;;12.60;94.70;;;;;;5110621;28;19965;-88
2023/03/28 02:13:13;;;;;;;;;;;12.60;94.70;;;;;;5109798;28;20006;-88
2023/03/28 02:15:41;;;;;;;;;;;12.60;94.70;;;;;;5109885;28;19908;-88
2023/03/28 02:18:11;;;;;;;;;;;12.60;94.70;;;;;;5094270;28;19915;-88
2023/03/28 02:20:37;;;;;;;;;;;12.60;94.60;;;;;;5111750;28;19970;-88
2023/03/28 02:23:28;;;;;;;;;;;12.60;94.60;;;;;;5111220;28;20269;-88
2023/03/28 02:25:54;;;;;;;;;;;12.60;94.60;;;;;;5076701;28;19916;-88
2023/03/28 02:28:20;;;;;;;;;;;12.60;94.60;;;;;;5114230;28;19985;-87
2023/03/28 02:30:46;;;;;;;;;;;12.50;94.60;;;;;;5114021;28;20241;-88
2023/03/28 02:33:30;;;;;;;;;;;12.50;94.50;;;;;;5114502;28;20027;-88
2023/03/28 02:35:56;;;;;;;;;;;12.50;94.50;;;;;;5114392;28;19919;-89
2023/03/28 02:38:45;;;;;;;;;;;12.60;94.60;;;;;;5114647;28;19908;-89
2023/03/28 02:41:14;;;;;;;;;;;12.50;94.50;;;;;;5053053;28;19908;-89
2023/03/28 02:43:49;;;;;;;;;;;12.50;94.50;;;;;;5114563;28;19963;-89
2023/03/28 02:46:19;;;;;;;;;;;12.50;94.50;;;;;;5115018;28;19908;-88
2023/03/28 02:48:47;;;;;;;;;;;12.50;94.50;;;;;;5099024;28;20302;-89
2023/03/28 02:51:22;;;;;;;;;;;12.50;94.50;;;;;;5115759;28;19931;-89
2023/03/28 02:53:48;;;;;;;;;;;12.50;94.40;;;;;;5115439;28;20194;-88
2023/03/28 02:56:16;;;;;;;;;;;12.50;94.40;;;;;;5115463;28;19912;-88
2023/03/28 02:58:47;;;;;;;;;;;12.50;94.40;;;;;;5114329;28;19908;-88
2023/03/28 03:01:16;;;;;;;;;;;12.50;94.40;;;;;;5114956;28;19973;-88
2023/03/28 03:03:42;;;;;;;;;;;12.40;94.30;;;;;;5113769;28;19922;-88
2023/03/28 03:06:08;;;;;;;;;;;12.50;94.40;;;;;;5114248;28;19912;-88
2023/03/28 03:08:34;;;;;;;;;;;12.40;94.30;;;;;;5115046;28;19944;-88
2023/03/28 03:10:59;;;;;;;;;;;12.40;94.30;;;;;;5114459;28;19919;-88
2023/03/28 03:13:25;;;;;;;;;;;12.40;94.30;;;;;;5114206;28;19934;-88
2023/03/28 03:15:53;;;;;;;;;;;12.40;94.30;;;;;;5114578;28;19908;-88
2023/03/28 03:18:18;;;;;;;;;;;12.40;94.30;;;;;;5114801;28;19916;-88
2023/03/28 03:20:49;;;;;;;;;;;12.40;94.30;;;;;;5114847;28;19909;-88
2023/03/28 03:23:15;;;;;;;;;;;12.40;94.30;;;;;;5114670;28;19913;-88
2023/03/28 03:25:42;;;;;;;;;;;12.40;94.30;;;;;;5114441;28;19919;-88
2023/03/28 03:28:07;;;;;;;;;;;12.40;94.60;;;;;;5079086;28;19982;-88
2023/03/28 03:30:33;;;;;;;;;;;12.30;94.30;;;;;;5096824;28;19908;-88
2023/03/28 03:32:59;;;;;;;;;;;12.30;94.60;;;;;;5112747;28;19912;-88
2023/03/28 03:35:27;;;;;;;;;;;12.30;94.30;;;;;;5110989;28;20319;-88
2023/03/28 03:37:53;;;;;;;;;;;12.30;94.30;;;;;;5109965;28;19965;-88
2023/03/28 03:40:19;;;;;;;;;;;12.30;94.20;;;;;;5111869;28;19912;-88
2023/03/28 03:42:44;;;;;;;;;;;12.30;94.30;;;;;;5112924;28;19918;-88
2023/03/28 03:45:10;;;;;;;;;;;12.20;94.20;;;;;;5113045;28;19908;-88
2023/03/28 03:47:36;;;;;;;;;;;12.30;94.20;;;;;;5112975;28;19908;-88
2023/03/28 03:50:01;;;;;;;;;;;12.30;94.20;;;;;;5112586;28;19908;-88
2023/03/28 03:52:27;;;;;;;;;;;12.20;94.20;;;;;;5095183;28;19950;-88
2023/03/28 03:54:52;;;;;;;;;;;12.20;94.40;;;;;;5095701;28;20226;-88
2023/03/28 03:57:18;;;;;;;;;;;12.20;94.10;;;;;;5110581;28;19927;-88
2023/03/28 03:59:44;;;;;;;;;;;12.20;94.10;;;;;;5076761;28;20203;-88
2023/03/28 04:02:10;;;;;;;;;;;12.20;94.00;;;;;;5110696;28;20178;-88
2023/03/28 04:04:39;;;;;;;;;;;12.20;94.00;;;;;;5110640;28;19912;-88
2023/03/28 04:07:05;;;;;;;;;;;12.20;94.00;;;;;;5109814;28;20177;-88
2023/03/28 04:09:30;;;;;;;;;;;12.20;94.00;;;;;;5109912;28;20359;-88
2023/03/28 04:11:56;;;;;;;;;;;12.20;94.00;;;;;;5109648;28;19915;-88
2023/03/28 04:14:22;;;;;;;;;;;12.20;94.00;;;;;;5107949;28;20017;-88
2023/03/28 04:16:49;;;;;;;;;;;12.20;93.90;;;;;;5108176;28;19912;-87
2023/03/28 04:19:16;;;;;;;;;;;12.20;93.90;;;;;;5110158;28;19908;-88
2023/03/28 04:21:47;;;;;;;;;;;12.20;93.90;;;;;;5110366;28;19908;-88
2023/03/28 04:24:16;;;;;;;;;;;12.10;93.80;;;;;;5109175;28;19911;-88
2023/03/28 04:26:42;;;;;;;;;;;12.10;93.80;;;;;;5093054;28;19919;-88
2023/03/28 04:29:09;;;;;;;;;;;12.10;93.80;;;;;;5111598;28;19908;-87
2023/03/28 04:31:37;;;;;;;;;;;12.10;93.70;;;;;;5076816;28;20263;-87
2023/03/28 04:34:04;;;;;;;;;;;12.10;93.70;;;;;;5108729;28;20023;-88
2023/03/28 04:36:30;;;;;;;;;;;12.10;93.70;;;;;;5109610;28;19989;-88
2023/03/28 04:38:58;;;;;;;;;;;12.10;93.70;;;;;;5108682;28;20011;-88
2023/03/28 04:41:24;;;;;;;;;;;12.10;93.70;;;;;;5108127;28;20274;-85
2023/03/28 04:43:50;;;;;;;;;;;12.10;93.60;;;;;;5106831;28;20094;-88
2023/03/28 04:46:16;;;;;;;;;;;12.10;93.60;;;;;;5107461;28;20185;-88
2023/03/28 04:48:41;;;;;;;;;;;12.10;93.70;;;;;;5108158;28;19908;-88
2023/03/28 04:51:07;;;;;;;;;;;12.00;93.60;;;;;;5108331;28;19915;-88
2023/03/28 04:53:33;;;;;;;;;;;12.00;93.60;;;;;;5107565;28;19908;-87
2023/03/28 04:55:58;;;;;;;;;;;12.00;93.70;;;;;;5106890;28;20036;-88
2023/03/28 04:58:24;;;;;;;;;;;12.00;93.70;;;;;;5105373;28;20289;-88
2023/03/28 05:00:55;;;;;;;;;;;12.00;93.60;;;;;;5109208;28;19995;-88
2023/03/28 05:03:21;;;;;;;;;;;12.00;93.60;;;;;;5107050;28;19922;-88
2023/03/28 05:05:48;;;;;;;;;;;12.10;93.60;;;;;;5090581;28;20167;-88
2023/03/28 05:08:15;;;;;;;;;;;12.00;93.60;;;;;;5108141;28;19919;-88
2023/03/28 05:10:41;;;;;;;;;;;12.00;93.60;;;;;;5090991;28;19912;-88
2023/03/28 05:13:07;;;;;;;;;;;12.00;93.60;;;;;;5090989;28;19922;-88
2023/03/28 05:15:32;;;;;;;;;;;12.00;93.60;;;;;;5105330;28;19999;-88
2023/03/28 05:17:58;;;;;;;;;;;12.00;93.50;;;;;;5104818;28;20002;-88
2023/03/28 05:20:24;;;;;;;;;;;12.00;93.50;;;;;;5107133;28;19912;-88
2023/03/28 05:22:50;;;;;;;;;;;12.00;93.50;;;;;;5106898;28;20348;-87
2023/03/28 05:25:16;;;;;;;;;;;12.00;93.50;;;;;;5107110;28;19908;-88
2023/03/28 05:27:41;;;;;;;;;;;12.00;93.50;;;;;;5106446;28;20412;-88
2023/03/28 05:30:09;;;;;;;;;;;12.00;93.40;;;;;;5106161;28;19947;-87
2023/03/28 05:32:36;;;;;;;;;;;12.00;93.40;;;;;;5105608;28;19943;-87
2023/03/28 05:35:02;;;;;;;;;;;12.00;93.40;;;;;;5105457;28;19919;-87
2023/03/28 05:37:28;;;;;;;;;;;12.00;93.40;;;;;;5103290;28;19915;-88
2023/03/28 05:39:54;;;;;;;;;;;12.00;93.30;;;;;;5103300;28;20046;-87
2023/03/28 05:42:20;;;;;;;;;;;12.00;93.30;;;;;;5102688;28;20078;-87
2023/03/28 05:44:45;;;;;;;;;;;12.00;93.20;;;;;;5102833;28;19920;-87
2023/03/28 05:47:10;;;;;;;;;;;12.00;93.20;;;;;;5103807;28;19912;-88
2023/03/28 05:49:36;;;;;;;;;;;12.00;93.10;;;;;;5101678;28;19998;-88
2023/03/28 05:52:02;;;;;;;;;;;12.10;93.10;;;;;;5103467;28;19939;-88
2023/03/28 05:54:27;;;;;;;;;;;12.10;93.00;;;;;;5089747;28;19938;-88
2023/03/28 05:56:53;;;;;;;;;;;12.10;92.90;;;;;;5105810;28;19969;-88
2023/03/28 05:59:23;;;;;;;;;;;12.20;92.80;;;;;;5089156;28;19915;-88
2023/03/28 06:01:51;;;;;;;;;;;12.30;92.60;;;;;;5107022;28;19987;-88
2023/03/28 06:04:17;;;;;;;;;;;12.60;92.20;;;;;;5092256;28;19923;-88
2023/03/28 06:06:44;;;;;;;;;;;12.80;91.60;;;;;;5107489;28;19918;-87
2023/03/28 06:09:10;;;;;;;;;;;13.20;90.80;;;;;;5108355;28;19908;-88
2023/03/28 06:11:36;;;;;;;;;;;13.50;89.30;;;;;;5107423;28;19915;-88
2023/03/28 06:14:01;;;;;;;;;;;13.90;86.80;;;;;;5107497;28;19908;-88
2023/03/28 06:16:26;;;;;;;;;;;14.20;84.10;;;;;;5108439;28;19955;-88
2023/03/28 06:18:53;;;;;;;;;;;14.60;81.60;;;;;;5110382;28;19915;-88
2023/03/28 06:21:19;;;;;;;;;;;14.90;79.00;;;;;;5107927;28;19908;-88
2023/03/28 06:23:45;;;;;;;;;;;15.20;76.60;;;;;;5104363;28;19989;-88
2023/03/28 06:26:11;;;;;;;;;;;15.50;74.40;;;;;;5072286;28;20060;-88
2023/03/28 06:28:36;;;;;;;;;;;15.80;72.20;;;;;;5108546;28;19908;-88
2023/03/28 06:31:02;;;;;;;;;;;16.10;70.20;;;;;;5107239;28;19913;-88
2023/03/28 06:33:27;;;;;;;;;;;16.30;68.30;;;;;;5091167;28;20391;-88
2023/03/28 06:35:54;;;;;;;;;;;16.60;66.70;;;;;;5074384;28;20079;-88
2023/03/28 06:38:19;;;;;;;;;;;16.80;65.10;;;;;;5107385;28;19918;-88
2023/03/28 06:40:45;;;;;;;;;;;17.10;63.90;;;;;;5108546;28;19908;-88
2023/03/28 06:43:11;;;;;;;;;;;17.40;63.00;;;;;;5108019;28;19916;-88
2023/03/28 06:45:36;;;;;;;;;;;17.70;62.00;;;;;;5107401;28;19913;-88
2023/03/28 06:48:02;;;;;;;;;;;17.90;60.70;;;;;;5106231;28;20066;-88
2023/03/28 06:50:28;;;;;;;;;;;18.20;59.80;;;;;;5106745;28;19908;-88
2023/03/28 06:52:53;;;;;;;;;;;18.50;59.10;;;;;;5104235;28;19908;-88
2023/03/28 06:55:21;;;;;;;;;;;18.70;58.50;;;;;;5105722;28;20178;-88
2023/03/28 06:57:47;;;;;;;;;;;19.10;57.80;;;;;;5089702;28;19909;-89
2023/03/28 07:00:12;;;;;;;;;;;19.30;57.10;;;;;;5106596;28;19915;-89
2023/03/28 07:02:38;;;;;;;;;;;19.60;56.50;;;;;;5106997;28;20011;-89
2023/03/28 07:05:04;;;;;;;;;;;19.80;55.90;;;;;;5108861;28;20205;-89
2023/03/28 07:07:30;;;;;;;;;;;20.10;55.30;;;;;;5106531;28;20145;-89
2023/03/28 07:09:56;;;;;;;;;;;20.40;54.70;;;;;;5106629;28;20206;-89
2023/03/28 07:12:21;;;;;;;;;;;20.60;54.10;;;;;;5105390;28;20274;-89
2023/03/28 07:14:47;;;;;;;;;;;20.70;53.50;;;;;;5106940;28;19938;-89
2023/03/28 07:17:13;;;;;;;;;;;20.90;53.10;;;;;;5104308;28;20040;-89
2023/03/28 07:19:38;;;;;;;;;;;21.00;52.80;;;;;;5105354;28;19970;-89
2023/03/28 07:22:04;;;;;;;;;;;21.10;52.50;;;;;;5105946;28;20288;-90
2023/03/28 07:24:29;;;;;;;;;;;21.30;52.10;;;;;;5106876;28;19919;-90
2023/03/28 07:26:55;;;;;;;;;;;21.60;51.70;;;;;;5105198;28;19908;-90
2023/03/28 07:29:20;;;;;;;;;;;21.70;51.30;;;;;;5105923;28;19973;-90
2023/03/28 07:31:46;;;;;;;;;;;21.70;51.00;;;;;;5106534;28;20378;-90
2023/03/28 07:34:12;;;;;;;;;;;21.80;50.90;;;;;;5107392;28;20004;-89
2023/03/28 07:36:38;;;;;;;;;;;21.70;50.60;;;;;;5104243;28;20132;-90
2023/03/28 07:39:04;;;;;;;;;;;21.60;50.60;;;;;;5104609;28;19904;-90
2023/03/28 07:41:30;;;;;;;;;;;21.60;50.70;;;;;;5105439;28;20160;-90
2023/03/28 07:43:55;;;;;;;;;;;21.70;51.00;;;;;;5106491;28;20182;-90
2023/03/28 07:46:22;;;;;;;;;;;22.00;51.20;;;;;;5105039;28;19912;-90
2023/03/28 07:48:48;;;;;;;;;;;22.40;51.30;;;;;;5106242;28;20146;-90
2023/03/28 07:51:14;;;;;;;;;;;22.70;51.30;;;;;;5105948;28;20068;-90
2023/03/28 07:53:40;;;;;;;;;;;22.90;51.20;;;;;;5091344;28;19908;-90
2023/03/28 07:56:10;;;;;;;;;;;22.90;51.10;;;;;;5107157;28;19915;-90
2023/03/28 07:58:37;;;;;;;;;;;23.10;50.90;;;;;;5074420;28;19908;-90
2023/03/28 08:01:04;;;;;;;;;;;23.30;50.70;;;;;;5107178;28;20218;-89
2023/03/28 08:03:30;;;;;;;;;;;23.50;50.50;;;;;;5091637;28;20320;-90
2023/03/28 08:05:56;;;;;;;;;;;23.60;50.10;;;;;;5106471;28;20015;-90
2023/03/28 08:08:22;;;;;;;;;;;23.80;49.90;;;;;;5107810;28;19908;-90
2023/03/28 08:10:51;;;;;;;;;;;23.90;49.50;;;;;;5106607;28;20139;-90
2023/03/28 08:13:17;;;;;;;;;;;24.20;49.20;;;;;;5105196;28;19918;-90
2023/03/28 08:15:42;;;;;;;;;;;24.40;48.80;;;;;;5106693;28;19977;-90
2023/03/28 08:18:08;;;;;;;;;;;24.50;48.50;;;;;;5106360;28;20248;-89
2023/03/28 08:20:33;;;;;;;;;;;24.80;48.10;;;;;;5105035;28;19918;-90
2023/03/28 08:23:00;;;;;;;;;;;25.10;47.50;;;;;;5103783;28;19959;-91
2023/03/28 08:25:25;;;;;;;;;;;25.20;47.10;;;;;;5102367;28;20015;-90
2023/03/28 08:27:51;;;;;;;;;;;24.50;47.40;;;;;;5104023;28;20010;-90
2023/03/28 08:30:16;;;;;;;;;;;24.40;47.50;;;;;;5104025;28;20011;-91
2023/03/28 08:32:42;;;;;;;;;;;24.10;47.20;;;;;;5101875;28;19908;-91
2023/03/28 08:35:07;;;;;;;;;;;23.90;47.80;;;;;;5102976;28;19923;-91
2023/03/28 08:37:33;;;;;;;;;;;24.10;47.70;;;;;;5104367;28;19961;-91
2023/03/28 08:39:59;;;;;;;;;;;24.40;47.60;;;;;;5103374;28;20156;-90
2023/03/28 08:42:37;;;;;;;;;;;24.60;47.30;;;;;;5102897;28;19916;-90
2023/03/28 08:45:18;;;;;;;;;;;24.20;47.30;;;;;;5103147;28;19970;-91
2023/03/28 08:48:19;;;;;;;;;;;24.50;47.20;;;;;;5101453;28;19919;-90
2023/03/28 08:50:53;;;;;;;;;;;24.80;46.60;;;;;;5008683;28;19916;-90
2023/03/28 08:53:33;;;;;;;;;;;23.50;47.30;;;;;;5060760;28;19908;-90
2023/03/28 08:56:00;;;;;;;;;;;23.80;47.50;;;;;;5105713;28;19939;-92
2023/03/28 08:58:30;;;;;;;;;;;23.10;47.80;;;;;;5084891;28;19918;-92
2023/03/28 09:00:56;;;;;;;;;;;23.50;47.80;;;;;;5104270;28;19935;-92
2023/03/28 09:03:22;;;;;;;;;;;23.30;47.10;;;;;;5101750;28;19913;-92
2023/03/28 09:05:52;;;;;;;;;;;24.00;47.30;;;;;;5104608;28;19919;-92
2023/03/28 09:08:36;;;;;;;;;;;23.40;47.30;;;;;;5104315;28;19958;-92
2023/03/28 09:11:07;;;;;;;;;;;24.00;46.80;;;;;;5105215;28;19912;-92
2023/03/28 09:13:35;;;;;;;;;;;24.00;46.30;;;;;;5103182;28;19916;-92
2023/03/28 09:16:20;;;;;;;;;;;24.70;46.10;;;;;;5104468;28;19912;-90
2023/03/28 09:18:59;;;;;;;;;;;24.80;45.60;;;;;;5106581;28;19923;-90
2023/03/28 09:21:32;;;;;;;;;;;23.30;46.10;;;;;;5105354;28;19916;-90
2023/03/28 09:24:01;;;;;;;;;;;22.80;47.10;;;;;;5104660;28;19980;-88
2023/03/28 09:26:28;;;;;;;;;;;22.00;47.40;;;;;;5104483;28;20069;-90
2023/03/28 09:29:00;;;;;;;;;;;21.30;48.20;;;;;;5070165;28;19908;-89
2023/03/28 09:31:30;;;;;;;;;;;20.70;49.00;;;;;;5102860;28;19908;-90
2023/03/28 09:33:57;;;;;;;;;;;20.40;49.50;;;;;;5103331;28;20305;-91
2023/03/28 09:36:26;;;;;;;;;;;20.90;49.50;;;;;;5102427;28;19908;-89
2023/03/28 09:38:59;;;;;;;;;;;21.00;49.00;;;;;;5102852;28;20511;-92
2023/03/28 09:41:30;;;;;;;;;;;20.70;49.20;;;;;;5100906;28;19916;-92
2023/03/28 09:43:58;;;;;;;;;;;20.20;49.60;;;;;;5103569;28;19978;-92
2023/03/28 09:46:39;;;;;;;;;;;19.70;50.20;;;;;;5104065;28;19908;-91
2023/03/28 09:49:09;;;;;;;;;;;19.30;50.70;;;;;;5099654;28;20168;-91
2023/03/28 09:51:36;;;;;;;;;;;19.00;51.20;;;;;;5102240;28;19908;-92
2023/03/28 09:54:06;;;;;;;;;;;18.80;51.60;;;;;;5069680;28;19946;-92
2023/03/28 09:56:31;;;;;;;;;;;18.70;51.80;;;;;;5104156;28;19915;-92
2023/03/28 09:58:58;;;;;;;;;;;18.60;52.00;;;;;;5101253;28;19912;-92
2023/03/28 10:01:48;;;;;;;;;;;18.60;52.20;;;;;;5100590;28;20011;-92
2023/03/28 10:04:17;;;;;;;;;;;18.60;52.30;;;;;;5100322;28;20048;-92
2023/03/28 10:06:44;;;;;;;;;;;18.50;52.30;;;;;;5101536;28;20019;-91
2023/03/28 10:09:20;;;;;;;;;;;18.50;52.50;;;;;;5099352;28;20217;-91
2023/03/28 10:11:50;;;;;;;;;;;18.50;53.00;;;;;;5102155;28;20167;-92
2023/03/28 10:14:33;;;;;;;;;;;18.50;52.40;;;;;;5086711;28;19908;-92
2023/03/28 10:17:06;;;;;;;;;;;18.40;52.60;;;;;;5101446;28;20091;-92
2023/03/28 10:19:37;;;;;;;;;;;18.40;52.70;;;;;;5086598;28;20209;-92
2023/03/28 10:22:19;;;;;;;;;;;18.50;52.50;;;;;;5101125;28;20136;-92
2023/03/28 10:24:46;;;;;;;;;;;18.50;52.40;;;;;;5101271;28;19916;-92
2023/03/28 10:27:17;;;;;;;;;;;18.30;52.40;;;;;;5102752;28;20061;-92
2023/03/28 10:29:44;;;;;;;;;;;18.20;52.70;;;;;;5101495;28;19915;-92
2023/03/28 10:32:22;;;;;;;;;;;18.10;52.80;;;;;;5101515;28;20191;-92
2023/03/28 10:34:56;;;;;;;;;;;17.90;53.10;;;;;;5102951;28;19916;-92
2023/03/28 10:37:24;;;;;;;;;;;17.80;53.30;;;;;;5102293;28;19922;-92
2023/03/28 10:39:57;;;;;;;;;;;17.80;53.40;;;;;;5100522;28;20310;-92
2023/03/28 10:42:23;;;;;;;;;;;17.70;53.50;;;;;;5101846;28;19909;-92
2023/03/28 10:44:57;;;;;;;;;;;17.70;53.50;;;;;;5102523;28;19912;-92
2023/03/28 10:47:23;;;;;;;;;;;17.70;53.60;;;;;;5106484;28;19951;-92
2023/03/28 10:49:50;;;;;;;;;;;17.70;53.70;;;;;;5106864;28;19951;-92
2023/03/28 10:52:28;;;;;;;;;;;17.80;53.60;;;;;;5106508;28;19973;-91
2023/03/28 10:55:10;;;;;;;;;;;17.80;53.60;;;;;;5106143;28;19916;-92
2023/03/28 10:57:56;;;;;;;;;;;17.80;53.60;;;;;;5096327;28;19928;-92
2023/03/28 11:00:29;;;;;;;;;;;17.80;53.80;;;;;;5071202;28;20173;-92
2023/03/28 11:03:14;;;;;;;;;;;17.80;53.80;;;;;;5072386;28;19919;-92
2023/03/28 11:05:50;;;;;;;;;;;17.70;53.80;;;;;;5104577;28;19924;-89
2023/03/28 11:08:31;;;;;;;;;;;17.70;54.40;;;;;;5104684;28;20331;-89
2023/03/28 11:11:03;;;;;;;;;;;17.60;54.10;;;;;;5102420;28;19908;-89
2023/03/28 11:13:38;;;;;;;;;;;17.60;54.30;;;;;;5101273;28;19904;-89
2023/03/28 11:16:10;;;;;;;;;;;17.50;54.30;;;;;;5099903;28;19908;-89
2023/03/28 11:18:42;;;;;;;;;;;17.50;54.70;;;;;;5084894;28;20107;-89
2023/03/28 11:21:18;;;;;;;;;;;17.50;54.80;;;;;;5100560;28;19916;-89
2023/03/28 11:23:47;;;;;;;;;;;17.50;55.00;;;;;;5099434;28;20271;-90
2023/03/28 11:26:17;;;;;;;;;;;17.50;55.20;;;;;;5102265;28;20194;-92
2023/03/28 11:28:46;;;;;;;;;;;17.50;55.20;;;;;;5102078;28;19908;-91
2023/03/28 11:31:16;;;;;;;;;;;17.40;55.40;;;;;;5103659;28;20340;-91
2023/03/28 11:34:01;;;;;;;;;;;17.50;55.90;;;;;;5104523;28;19924;-91
2023/03/28 11:36:53;;;;;;;;;;;17.50;55.60;;;;;;5056208;28;19913;-91
2023/03/28 11:39:41;;;;;;;;;;;17.40;55.80;;;;;;5063700;28;19931;-91
2023/03/28 11:42:10;;;;;;;;;;;17.40;55.90;;;;;;5067680;28;19908;-91
2023/03/28 11:44:49;;;;;;;;;;;17.40;56.00;;;;;;5101204;28;20092;-88
2023/03/28 11:47:22;;;;;;;;;;;17.30;56.10;;;;;;5100792;28;19972;-89
2023/03/28 11:49:51;;;;;;;;;;;17.30;56.40;;;;;;5100350;28;19919;-89
2023/03/28 11:52:44;;;;;;;;;;;17.30;56.50;;;;;;5105050;28;19969;-89
2023/03/28 11:55:16;;;;;;;;;;;17.20;56.70;;;;;;5085481;28;19931;-89
2023/03/28 11:57:45;;;;;;;;;;;17.20;56.70;;;;;;5101007;28;20131;-89
2023/03/28 12:00:13;;;;;;;;;;;17.20;57.00;;;;;;5100377;28;19918;-89
2023/03/28 12:02:41;;;;;;;;;;;17.20;57.10;;;;;;5098936;28;20349;-89
2023/03/28 12:05:06;;;;;;;;;;;17.10;57.00;;;;;;5101559;28;20011;-88
2023/03/28 12:07:42;;;;;;;;;;;17.10;56.80;;;;;;5101711;28;20006;-89
2023/03/28 12:10:08;;;;;;;;;;;17.10;56.60;;;;;;5100058;27;20270;-89
2023/03/28 12:12:37;;;;;;;;;;;17.00;56.70;;;;;;5100260;28;19991;-89
2023/03/28 12:15:09;;;;;;;;;;;17.00;57.00;;;;;;5096837;28;19908;-89
2023/03/28 12:17:37;;;;;;;;;;;17.00;57.10;;;;;;5080672;28;19919;-89
2023/03/28 12:20:07;;;;;;;;;;;17.00;57.20;;;;;;5096285;28;19951;-89
2023/03/28 12:22:43;;;;;;;;;;;17.00;57.20;;;;;;5098151;28;19916;-89
2023/03/28 12:25:25;;;;;;;;;;;16.90;57.20;;;;;;5100660;28;19912;-89
2023/03/28 12:28:09;;;;;;;;;;;16.90;57.30;;;;;;5083813;28;19915;-89
2023/03/28 12:30:47;;;;;;;;;;;16.90;57.10;;;;;;5099053;28;19908;-89
2023/03/28 12:33:21;;;;;;;;;;;16.90;57.40;;;;;;5084135;28;19946;-89
2023/03/28 12:35:51;;;;;;;;;;;16.90;57.60;;;;;;5102561;28;20053;-89
2023/03/28 12:38:38;;;;;;;;;;;16.90;57.50;;;;;;5102754;28;20340;-89
2023/03/28 12:41:05;;;;;;;;;;;16.90;57.30;;;;;;5102777;28;19951;-89
2023/03/28 12:43:40;;;;;;;;;;;16.90;57.50;;;;;;5085077;28;19912;-89
2023/03/28 12:46:07;;;;;;;;;;;16.90;57.60;;;;;;5101730;28;20333;-90
2023/03/28 12:48:38;;;;;;;;;;;16.90;57.50;;;;;;5101526;28;20180;-91
2023/03/28 12:51:12;;;;;;;;;;;16.90;57.30;;;;;;5101068;28;20353;-90
2023/03/28 12:53:57;;;;;;;;;;;16.90;57.20;;;;;;5099916;28;19924;-89
2023/03/28 12:56:22;;;;;;;;;;;16.90;57.00;;;;;;5086473;28;20259;-89
2023/03/28 12:58:50;;;;;;;;;;;16.90;57.30;;;;;;5102672;28;20275;-89
2023/03/28 13:01:24;;;;;;;;;;;16.80;57.30;;;;;;5101248;28;19908;-90
2023/03/28 13:04:07;;;;;;;;;;;16.90;57.50;;;;;;5101509;28;19912;-89
2023/03/28 13:06:42;;;;;;;;;;;16.90;57.60;;;;;;5102184;28;19922;-89
2023/03/28 13:09:19;;;;;;;;;;;16.80;57.90;;;;;;5100467;28;20232;-89
2023/03/28 13:11:51;;;;;;;;;;;16.80;58.10;;;;;;5100431;28;19934;-89
2023/03/28 13:14:29;;;;;;;;;;;16.80;58.50;;;;;;5100345;28;19908;-89
2023/03/28 13:16:56;;;;;;;;;;;16.80;58.70;;;;;;5086802;28;19969;-88
2023/03/28 13:19:37;;;;;;;;;;;16.80;59.00;;;;;;5082589;28;19907;-89
2023/03/28 13:22:05;;;;;;;;;;;16.80;59.50;;;;;;5101881;28;20128;-89
2023/03/28 13:24:32;;;;;;;;;;;16.80;59.90;;;;;;5102550;28;20399;-89
2023/03/28 13:26:59;;;;;;;;;;;16.80;60.30;;;;;;5101493;28;20013;-89
2023/03/28 13:29:43;;;;;;;;;;;16.80;61.30;;;;;;5100484;28;20004;-89
2023/03/28 13:32:12;;;;;;;;;;;16.80;61.60;;;;;;5100500;28;19912;-89
2023/03/28 13:34:37;;;;;;;;;;;16.70;61.50;;;;;;5066660;28;20209;-89
2023/03/28 13:37:16;;;;;;;;;;;16.70;61.40;;;;;;5082864;28;19979;-89
2023/03/28 13:39:49;;;;;;;;;;;16.70;62.20;;;;;;5101203;28;19912;-89
2023/03/28 13:42:28;;;;;;;;;;;16.70;61.60;;;;;;5100352;28;19935;-89
2023/03/28 13:44:56;;;;;;;;;;;16.70;61.70;;;;;;5086145;28;20282;-88
2023/03/28 13:47:29;;;;;;;;;;;16.70;61.90;;;;;;5087332;28;20270;-90
2023/03/28 13:50:00;;;;;;;;;;;16.70;62.00;;;;;;5100596;28;20122;-89
2023/03/28 13:52:26;;;;;;;;;;;16.60;62.10;;;;;;5101068;28;19919;-89
2023/03/28 13:54:59;;;;;;;;;;;16.60;62.20;;;;;;5100418;28;19908;-89
2023/03/28 13:57:25;;;;;;;;;;;16.60;62.50;;;;;;5085573;28;19908;-89
2023/03/28 13:59:57;;;;;;;;;;;16.60;62.30;;;;;;5098343;28;19973;-89
2023/03/28 14:02:46;;;;;;;;;;;16.60;62.80;;;;;;5094584;28;20375;-90
2023/03/28 14:05:18;;;;;;;;;;;16.60;62.30;;;;;;5058113;28;19912;-89
2023/03/28 14:07:44;;;;;;;;;;;16.60;62.50;;;;;;5098185;28;19966;-89
2023/03/28 14:10:19;;;;;;;;;;;16.60;62.70;;;;;;5097137;28;19938;-89
2023/03/28 14:12:45;;;;;;;;;;;16.60;62.70;;;;;;5095249;28;19912;-90
2023/03/28 14:15:15;;;;;;;;;;;16.50;62.90;;;;;;5096242;28;19973;-89
2023/03/28 14:17:40;;;;;;;;;;;16.50;62.90;;;;;;5099713;28;20216;-89
2023/03/28 14:20:07;;;;;;;;;;;16.50;63.20;;;;;;5084317;28;20055;-89
2023/03/28 14:22:36;;;;;;;;;;;16.50;63.30;;;;;;5104000;28;19952;-90
2023/03/28 14:25:03;;;;;;;;;;;16.50;63.20;;;;;;5103125;28;19912;-89
2023/03/28 14:27:39;;;;;;;;;;;16.50;63.50;;;;;;5102454;28;19908;-90
2023/03/28 14:30:20;;;;;;;;;;;16.50;63.40;;;;;;5102150;28;20282;-89
2023/03/28 14:32:53;;;;;;;;;;;16.50;63.50;;;;;;5102092;28;20319;-89
2023/03/28 14:35:21;;;;;;;;;;;16.50;63.60;;;;;;5105763;28;19927;-89
2023/03/28 14:37:50;;;;;;;;;;;16.50;63.70;;;;;;5106467;28;19913;-89
2023/03/28 14:40:17;;;;;;;;;;;16.50;63.70;;;;;;5101509;28;20072;-89